KSLN

Salina Regional Airport

Salina, Kansas, USA
METAR KSLN 150053Z 30007KT 10SM FEW022 SCT039 BKN055 24/22 A2984 RMK AO2 SLP093 T02440217
Observed Flight Rules
Aug-15 @ 00:53 UTC (11 minutes ago) Visual Flight Rules
Wind Visibility Clouds
300° at 7 knots 10 miles
  • Few at 2,200' AGL
  • Scattered at 3,900' AGL
  • Broken at 5,500' AGL
Temperatures Readings
Current 24°C / 75°F
Dewpoint 22°C / 72°F
Humidity 89%
Altimeter 29.84" Hg
Pressure 1009.3 hPa
Elevation 385
METAR KSLN 150053Z 30007KT 10SM FEW022 SCT039 BKN055 24/22 A2984 RMK AO2 SLP093 T02440217
Observed Flight Rules
Aug-15 @ 00:53 UTC
(11 minutes ago)
VFR
Wind Visibility
300° at 7 knots 10 miles
Clouds
  • Few at 2,200' AGL
  • Scattered at 3,900' AGL
  • Broken at 5,500' AGL
Temperature Dewpoint
24°C / 75°F 22°C / 72°F
Humidity Altimeter Pressure
89% 29.84" Hg 1009.3 hPa